Time;durP1;ratioP1;P1;durP2;ratioP2;P2;SDS_P1;SDS_P2;PMS_P1;PMS_P2;Temp;Humidity;BMP_temperature;BMP_pressure;BME280_temperature;BME280_humidity;BME280_pressure;Samples;Min_cycle;Max_cycle;Signal;HPM_P1;HPM_P2
2021/07/20 00:01:12;;;;;;;11.33;7.55;;;;;;;18.41;74.24;96609.55;127753;1096;35372;-95
2021/07/20 00:03:44;;;;;;;10.65;7.88;;;;;;;18.37;74.29;96603.28;127807;1096;34208;-95
2021/07/20 00:06:16;;;;;;;13.48;7.88;;;;;;;18.35;74.29;96598.23;127846;1096;34251;-95
2021/07/20 00:08:48;;;;;;;11.58;6.93;;;;;;;18.35;74.36;96602.82;127853;1094;29617;-95
2021/07/20 00:11:19;;;;;;;15.03;8.13;;;;;;;18.31;74.48;96591.97;127855;1096;30718;-95
2021/07/20 00:13:51;;;;;;;12.35;8.28;;;;;;;18.24;74.31;96589.00;127712;1096;39094;-96
2021/07/20 00:16:22;;;;;;;12.98;8.18;;;;;;;18.21;74.76;96588.88;127899;1096;34788;-95
2021/07/20 00:18:54;;;;;;;12.18;8.50;;;;;;;18.18;74.86;96590.33;127756;1097;35573;-95
2021/07/20 00:21:25;;;;;;;13.33;8.33;;;;;;;18.15;75.16;96595.54;127810;1096;35120;-95
2021/07/20 00:23:57;;;;;;;11.85;7.78;;;;;;;18.11;75.32;96587.37;127740;1094;32726;-95
2021/07/20 00:26:28;;;;;;;13.57;7.90;;;;;;;18.09;75.26;96592.28;127781;1096;38234;-95
2021/07/20 00:28:59;;;;;;;14.03;9.05;;;;;;;18.03;75.52;96591.70;127905;1096;37330;-96
2021/07/20 00:31:31;;;;;;;14.35;7.85;;;;;;;18.02;75.75;96597.39;127856;1096;46322;-96
2021/07/20 00:34:02;;;;;;;12.60;8.58;;;;;;;18.00;75.92;96595.01;127810;1096;37534;-95
2021/07/20 00:36:34;;;;;;;14.58;8.43;;;;;;;17.97;75.86;96594.88;127802;1097;39228;-96
2021/07/20 00:39:07;;;;;;;13.43;9.18;;;;;;;17.95;75.96;96594.43;127716;1097;40161;-95
2021/07/20 00:41:38;;;;;;;16.53;9.48;;;;;;;17.91;76.19;96593.52;127832;1096;28059;-96
2021/07/20 00:47:00;;;;;;;16.87;8.77;;;;;;;17.80;76.58;96596.56;127836;1097;41420;-96
2021/07/20 00:49:32;;;;;;;12.03;8.88;;;;;;;17.75;76.76;96587.94;126144;1095;2023244;-96
2021/07/20 00:52:04;;;;;;;14.43;9.13;;;;;;;17.69;76.90;96589.22;127832;1097;34267;-95
2021/07/20 00:54:36;;;;;;;15.05;9.00;;;;;;;17.58;77.44;96583.40;127833;1095;40440;-95
2021/07/20 00:57:08;;;;;;;15.13;9.60;;;;;;;17.49;77.79;96582.67;127786;1095;35982;-95
2021/07/20 00:59:42;;;;;;;14.87;9.87;;;;;;;17.41;78.19;96583.48;127972;1095;35349;-95
2021/07/20 01:02:13;;;;;;;18.48;10.18;;;;;;;17.34;78.59;96585.91;127899;1096;36652;-95
2021/07/20 01:04:45;;;;;;;13.88;9.48;;;;;;;17.26;79.00;96592.85;128005;1095;34685;-96
2021/07/20 01:07:17;;;;;;;13.75;9.20;;;;;;;17.21;79.57;96593.83;127740;1096;39837;-96
2021/07/20 01:09:52;;;;;;;12.75;8.90;;;;;;;17.14;79.57;96590.05;127873;1096;37604;-96
2021/07/20 01:12:25;;;;;;;14.38;9.15;;;;;;;17.13;79.70;96593.84;127757;1095;31187;-95
2021/07/20 01:14:58;;;;;;;15.77;9.30;;;;;;;17.12;80.06;96598.41;127920;1096;42284;-96
2021/07/20 01:17:31;;;;;;;14.70;8.78;;;;;;;17.10;80.11;96589.92;128078;1096;35004;-95
2021/07/20 01:20:07;;;;;;;14.28;9.63;;;;;;;17.06;80.27;96588.99;127994;1096;32462;-95
2021/07/20 01:22:41;;;;;;;12.38;8.73;;;;;;;17.07;80.41;96585.20;127921;1096;36047;-95
2021/07/20 01:25:14;;;;;;;15.15;8.83;;;;;;;17.06;80.30;96586.31;127980;1096;36884;-96
2021/07/20 01:27:51;;;;;;;12.23;8.48;;;;;;;17.05;80.64;96582.06;127798;1097;37803;-95
2021/07/20 01:30:23;;;;;;;12.35;8.25;;;;;;;16.98;80.97;96587.11;127863;1095;32276;-96
2021/07/20 01:32:57;;;;;;;13.43;8.75;;;;;;;16.95;81.20;96587.76;128196;1095;38526;-95
2021/07/20 01:35:31;;;;;;;13.33;8.65;;;;;;;16.94;81.39;96585.41;129973;1095;40295;-96
2021/07/20 01:38:08;;;;;;;12.43;8.93;;;;;;;16.93;81.44;96587.30;130051;1095;34623;-94
2021/07/20 01:40:41;;;;;;;12.55;8.33;;;;;;;16.93;81.58;96589.97;127805;1096;33779;-96
2021/07/20 01:43:14;;;;;;;14.60;8.95;;;;;;;16.95;81.67;96593.11;127858;1095;39519;-96
2021/07/20 01:45:46;;;;;;;14.43;8.35;;;;;;;16.94;81.49;96586.19;128131;1096;40052;-95
2021/07/20 01:48:19;;;;;;;14.43;8.00;;;;;;;16.93;81.77;96589.97;127922;1096;34755;-95
2021/07/20 01:50:51;;;;;;;12.58;7.65;;;;;;;16.92;81.70;96591.08;127802;1096;37477;-95
2021/07/20 01:53:24;;;;;;;12.08;8.13;;;;;;;16.93;81.86;96605.25;127901;1096;38312;-96
2021/07/20 01:55:56;;;;;;;13.15;7.53;;;;;;;16.94;81.88;96607.61;127981;1096;41310;-94
2021/07/20 01:58:27;;;;;;;11.58;8.15;;;;;;;16.96;81.81;96609.97;128087;1096;34731;-95
2021/07/20 02:01:00;;;;;;;11.00;7.50;;;;;;;16.96;81.91;96616.11;127941;1095;41194;-95
2021/07/20 02:03:55;;;;;;;12.58;7.90;;;;;;;16.91;82.01;96617.08;128139;1095;39743;-94
2021/07/20 02:09:24;;;;;;;10.90;6.73;;;;;;;16.86;82.29;96611.86;128244;1096;38759;-96
2021/07/20 02:11:57;;;;;;;11.00;7.33;;;;;;;16.79;82.33;96616.15;127883;1096;33206;-96
2021/07/20 02:14:39;;;;;;;10.35;7.30;;;;;;;16.78;82.70;96622.61;128108;1096;37789;-95
2021/07/20 02:17:13;;;;;;;10.75;7.53;;;;;;;16.79;83.01;96633.00;127859;1096;34154;-95
2021/07/20 02:19:49;;;;;;;12.00;7.48;;;;;;;16.82;83.21;96632.36;128144;1095;39313;-95
2021/07/20 02:22:25;;;;;;;11.00;7.23;;;;;;;16.84;83.01;96634.72;127942;1095;36457;-95
2021/07/20 02:24:57;;;;;;;9.60;7.40;;;;;;;16.85;83.03;96630.93;126609;1096;1441251;-95
2021/07/20 02:27:30;;;;;;;11.43;7.53;;;;;;;16.89;83.04;96629.18;127944;1095;37894;-95
2021/07/20 02:30:07;;;;;;;8.83;6.63;;;;;;;16.86;82.97;96627.14;127931;1096;36703;-96
2021/07/20 02:32:39;;;;;;;9.63;6.08;;;;;;;16.84;83.04;96634.72;127891;1096;33851;-95
2021/07/20 02:35:17;;;;;;;8.05;6.00;;;;;;;16.87;83.20;96634.08;127800;1097;35091;-94
2021/07/20 02:37:49;;;;;;;9.03;5.40;;;;;;;16.94;83.16;96628.25;127931;1096;30438;-93
2021/07/20 02:40:23;;;;;;;11.87;5.90;;;;;;;17.00;82.81;96633.11;127803;1096;63599;-95
2021/07/20 02:42:58;;;;;;;7.98;5.25;;;;;;;17.03;82.83;96634.35;127858;1097;30741;-95
2021/07/20 02:45:33;;;;;;;11.20;6.75;;;;;;;16.99;82.91;96636.89;127949;1096;33134;-95
2021/07/20 02:48:06;;;;;;;9.68;6.00;;;;;;;17.02;82.76;96633.57;127856;1095;33788;-95
2021/07/20 02:50:39;;;;;;;8.33;5.45;;;;;;;17.06;83.04;96637.20;127848;1095;38461;-94
2021/07/20 02:53:12;;;;;;;8.75;6.30;;;;;;;17.12;83.04;96632.45;127935;1096;32419;-94
2021/07/20 02:55:44;;;;;;;11.58;6.50;;;;;;;17.18;83.20;96631.98;127817;1097;35953;-95
2021/07/20 02:58:17;;;;;;;8.05;6.08;;;;;;;17.26;83.11;96640.30;127977;1096;34685;-94
2021/07/20 03:00:50;;;;;;;10.50;7.23;;;;;;;17.24;83.00;96639.83;127866;1097;33734;-94
2021/07/20 03:03:22;;;;;;;10.68;7.05;;;;;;;17.12;83.26;96630.56;127861;1096;31435;-95
2021/07/20 03:05:56;;;;;;;9.65;6.40;;;;;;;17.03;83.42;96634.35;127896;1096;36968;-94
2021/07/20 03:08:31;;;;;;;9.48;6.53;;;;;;;16.98;83.69;96632.64;127816;1095;36449;-95
2021/07/20 03:11:05;;;;;;;10.18;6.48;;;;;;;16.95;83.84;96624.47;127842;1095;39738;-95
2021/07/20 03:13:41;;;;;;;10.05;6.73;;;;;;;16.95;84.02;96635.96;127939;1095;67315;-95
2021/07/20 03:16:14;;;;;;;11.45;6.73;;;;;;;17.02;84.27;96630.89;127837;1097;61588;-93
2021/07/20 03:18:48;;;;;;;9.03;5.90;;;;;;;17.04;84.18;96628.70;127916;1096;34772;-95
2021/07/20 03:21:22;;;;;;;8.33;5.43;;;;;;;17.07;84.28;96633.42;127792;1096;60105;-95
2021/07/20 03:23:56;;;;;;;7.83;5.68;;;;;;;17.09;84.03;96617.81;128031;1096;28774;-95
2021/07/20 03:26:28;;;;;;;6.40;4.88;;;;;;;17.07;84.05;96624.59;127863;1096;33093;-95
2021/07/20 03:29:00;;;;;;;6.30;4.43;;;;;;;16.95;84.10;96624.47;127858;1095;35083;-96
2021/07/20 03:31:32;;;;;;;6.63;4.68;;;;;;;16.89;84.56;96626.50;127802;1096;31079;-94
2021/07/20 03:34:06;;;;;;;6.50;4.48;;;;;;;16.86;84.70;96632.50;127822;1094;31965;-95
2021/07/20 03:36:39;;;;;;;5.35;3.55;;;;;;;16.83;84.85;96628.57;127813;1096;42175;-95
2021/07/20 03:39:11;;;;;;;3.35;2.45;;;;;;;16.81;84.65;96625.43;127861;1097;29639;-95
2021/07/20 03:41:44;;;;;;;1.78;1.48;;;;;;;16.80;84.57;96617.72;127825;1096;35756;-95
2021/07/20 03:44:17;;;;;;;2.78;1.63;;;;;;;16.81;84.66;96630.00;127854;1097;32189;-94
2021/07/20 03:46:48;;;;;;;1.78;1.50;;;;;;;16.78;84.89;96625.28;127835;1096;36274;-95
2021/07/20 03:49:21;;;;;;;2.23;1.00;;;;;;;16.74;84.97;96632.36;127796;1096;76083;-94
2021/07/20 03:51:55;;;;;;;1.88;1.30;;;;;;;16.65;85.10;96621.64;127852;1096;33815;-95
2021/07/20 03:54:28;;;;;;;3.00;1.93;;;;;;;16.48;85.07;96622.45;127852;1096;32142;-94
2021/07/20 03:57:01;;;;;;;3.65;1.98;;;;;;;16.51;85.31;96623.70;127678;1096;50621;-95
2021/07/20 03:59:35;;;;;;;5.50;3.18;;;;;;;16.57;84.95;96625.10;127714;1095;30605;-94
2021/07/20 04:02:09;;;;;;;7.20;4.28;;;;;;;16.58;84.56;96626.67;127737;1096;46451;-94
2021/07/20 04:04:45;;;;;;;7.65;4.83;;;;;;;16.54;84.20;96629.20;127759;1097;32639;-95
2021/07/20 04:07:19;;;;;;;6.30;4.10;;;;;;;16.53;84.59;96632.20;127988;1095;32472;-95
2021/07/20 04:09:51;;;;;;;6.73;4.15;;;;;;;16.46;84.41;96627.30;127827;1096;29529;-94
2021/07/20 04:12:24;;;;;;;5.83;3.83;;;;;;;16.49;84.69;96623.23;127851;1096;33306;-95
2021/07/20 04:14:56;;;;;;;8.95;6.03;;;;;;;16.44;84.58;96618.81;127763;1096;33036;-95
2021/07/20 04:17:29;;;;;;;6.05;4.00;;;;;;;16.42;84.82;96618.34;127813;1096;36269;-94
2021/07/20 04:20:01;;;;;;;6.18;4.33;;;;;;;16.45;85.00;96620.38;127898;1096;40316;-96
2021/07/20 04:22:33;;;;;;;5.08;3.75;;;;;;;16.51;84.94;96627.16;127796;1095;28628;-94
2021/07/20 04:25:06;;;;;;;5.75;3.10;;;;;;;16.57;85.05;96623.21;127716;1096;33621;-94
2021/07/20 04:27:40;;;;;;;4.13;3.10;;;;;;;16.52;84.72;96628.73;127745;1096;60018;-95
2021/07/20 04:30:13;;;;;;;5.08;3.25;;;;;;;16.51;85.37;96629.05;127728;1096;40558;-94
2021/07/20 04:32:48;;;;;;;5.43;3.50;;;;;;;16.50;85.04;96617.56;127843;1096;34448;-93
2021/07/20 04:35:21;;;;;;;6.28;3.40;;;;;;;16.42;84.96;96620.23;127789;1096;30950;-95
2021/07/20 04:37:54;;;;;;;5.90;3.63;;;;;;;16.40;85.54;96625.90;127772;1094;29223;-95
2021/07/20 04:40:26;;;;;;;5.38;3.15;;;;;;;16.48;85.64;96621.66;127798;1097;33235;-94
2021/07/20 04:42:58;;;;;;;6.30;3.65;;;;;;;16.61;86.04;96628.74;127809;1096;43633;-95
2021/07/20 04:45:32;;;;;;;3.20;2.10;;;;;;;16.61;85.65;96621.50;127725;1095;35880;-95
2021/07/20 04:48:05;;;;;;;3.80;2.60;;;;;;;16.58;85.67;96627.46;127884;1096;34736;-95
2021/07/20 04:50:37;;;;;;;3.80;2.58;;;;;;;16.55;85.83;96628.09;127777;1095;29287;-95
2021/07/20 04:53:12;;;;;;;3.35;2.38;;;;;;;16.56;86.23;96629.67;127795;1096;31774;-95
2021/07/20 04:55:45;;;;;;;4.85;2.95;;;;;;;16.65;86.59;96628.89;127799;1095;30191;-95
2021/07/20 04:58:17;;;;;;;5.23;3.73;;;;;;;16.73;86.62;96641.49;127892;1096;34444;-95
2021/07/20 05:00:52;;;;;;;4.38;3.25;;;;;;;16.83;86.58;96636.61;127940;1096;31207;-95
2021/07/20 05:03:27;;;;;;;4.83;3.30;;;;;;;16.90;86.69;96638.81;127729;1095;44965;-95
2021/07/20 05:06:00;;;;;;;5.55;3.60;;;;;;;16.94;86.22;96644.31;127784;1095;36726;-95
2021/07/20 05:08:33;;;;;;;4.93;3.40;;;;;;;16.87;86.34;96647.46;127986;1096;30527;-95
2021/07/20 05:11:07;;;;;;;5.77;3.83;;;;;;;16.87;86.35;96642.89;127919;1095;35462;-95
2021/07/20 05:13:41;;;;;;;7.68;4.30;;;;;;;16.79;85.84;96648.27;127746;1095;34393;-95
2021/07/20 05:16:14;;;;;;;7.05;4.33;;;;;;;16.68;85.87;96652.38;127834;1096;30437;-95
2021/07/20 05:18:46;;;;;;;8.28;4.70;;;;;;;16.55;86.12;96649.51;127865;1095;36376;-95
2021/07/20 05:21:20;;;;;;;7.13;4.88;;;;;;;16.57;86.68;96649.19;127818;1096;37823;-95
2021/07/20 05:23:54;;;;;;;5.80;4.03;;;;;;;16.44;86.30;96650.92;127728;1096;30632;-96
2021/07/20 05:26:27;;;;;;;5.95;3.98;;;;;;;16.39;86.66;96653.76;127760;1096;35503;-95
2021/07/20 05:29:00;;;;;;;5.80;3.38;;;;;;;16.39;86.87;96651.09;127759;1096;36152;-96
2021/07/20 05:31:33;;;;;;;6.10;3.20;;;;;;;16.37;86.94;96655.18;127783;1096;38857;-95
2021/07/20 05:34:04;;;;;;;5.15;3.48;;;;;;;16.39;87.13;96656.44;127815;1096;35644;-95
2021/07/20 05:36:37;;;;;;;5.33;3.25;;;;;;;16.44;87.35;96653.59;127631;1096;37613;-94
2021/07/20 05:39:10;;;;;;;5.60;3.18;;;;;;;16.50;87.44;96660.38;127864;1095;31889;-94
2021/07/20 05:41:45;;;;;;;3.85;3.08;;;;;;;16.49;86.85;96655.34;127798;1096;36478;-95
2021/07/20 05:44:19;;;;;;;6.53;3.70;;;;;;;16.41;87.33;96659.58;127800;1096;39839;-95
2021/07/20 05:46:51;;;;;;;6.45;3.50;;;;;;;16.36;87.26;96659.75;127764;1097;92599;-95
2021/07/20 05:49:23;;;;;;;4.60;2.90;;;;;;;16.26;87.07;96668.06;127875;1096;35343;-95
2021/07/20 05:51:55;;;;;;;4.85;3.10;;;;;;;16.22;87.62;96662.56;127802;1096;31596;-95
2021/07/20 05:54:28;;;;;;;5.65;2.98;;;;;;;16.19;87.79;96670.43;127858;1095;30652;-95
2021/07/20 05:57:01;;;;;;;4.10;2.53;;;;;;;16.15;87.81;96669.45;127877;1096;32563;-95
2021/07/20 05:59:33;;;;;;;4.23;2.73;;;;;;;16.15;88.11;96672.13;127984;1096;33693;-95
2021/07/20 06:02:06;;;;;;;4.30;2.93;;;;;;;16.15;88.55;96675.59;127778;1096;34292;-95
2021/07/20 06:04:39;;;;;;;4.93;2.58;;;;;;;16.15;88.65;96672.92;127812;1096;33132;-95
2021/07/20 06:07:12;;;;;;;3.00;2.23;;;;;;;16.09;88.30;96673.39;127876;1096;30328;-95
2021/07/20 06:09:46;;;;;;;3.28;2.10;;;;;;;15.99;88.62;96674.46;127845;1097;34320;-96
2021/07/20 06:12:21;;;;;;;2.65;1.78;;;;;;;15.99;89.16;96675.25;127860;1095;71038;-95
2021/07/20 06:14:54;;;;;;;3.55;2.03;;;;;;;15.92;89.27;96674.93;127877;1096;27641;-96
2021/07/20 06:17:26;;;;;;;3.48;1.70;;;;;;;15.91;89.50;96681.38;128021;1096;40300;-95
2021/07/20 06:19:58;;;;;;;2.98;2.23;;;;;;;15.92;89.72;96680.28;128004;1095;37080;-95
2021/07/20 06:22:34;;;;;;;2.88;2.15;;;;;;;15.97;90.12;96685.47;127838;1096;36618;-96
2021/07/20 06:25:08;;;;;;;2.83;2.10;;;;;;;16.12;90.69;96686.14;128005;1096;28903;-95
2021/07/20 06:27:41;;;;;;;2.00;1.45;;;;;;;16.28;90.39;96688.05;127836;1095;32829;-95
2021/07/20 06:30:18;;;;;;;1.85;1.43;;;;;;;16.39;90.18;96693.11;127833;1095;41211;-95
2021/07/20 06:32:52;;;;;;;2.10;1.68;;;;;;;16.46;89.68;96691.53;127826;1097;36037;-94
2021/07/20 06:35:24;;;;;;;2.35;1.73;;;;;;;16.58;90.01;96689.02;127768;1096;36313;-96
2021/07/20 06:37:55;;;;;;;2.60;1.83;;;;;;;16.70;89.75;96695.67;127769;1097;68188;-95
2021/07/20 06:40:27;;;;;;;3.33;2.18;;;;;;;16.77;89.36;96698.68;127783;1097;31320;-95
2021/07/20 06:43:00;;;;;;;3.68;2.45;;;;;;;16.84;89.29;96705.12;127931;1096;34338;-95
2021/07/20 06:45:32;;;;;;;3.60;2.68;;;;;;;16.85;89.06;96704.02;127899;1095;35965;-95
2021/07/20 06:48:04;;;;;;;5.30;3.23;;;;;;;16.93;88.85;96701.66;127787;1096;39546;-95
2021/07/20 06:50:36;;;;;;;5.35;3.48;;;;;;;16.94;88.77;96704.02;127815;1096;47435;-96
2021/07/20 06:53:08;;;;;;;4.73;3.45;;;;;;;16.99;88.53;96701.17;127753;1096;33127;-95
2021/07/20 06:55:47;;;;;;;6.30;4.25;;;;;;;17.01;88.30;96698.95;127743;1095;34844;-95
2021/07/20 06:58:20;;;;;;;6.73;4.43;;;;;;;17.07;88.53;96702.28;127935;1096;33283;-94
2021/07/20 07:00:55;;;;;;;5.98;3.95;;;;;;;17.13;88.20;96706.35;127871;1096;43523;-95
2021/07/20 07:03:31;;;;;;;5.98;4.25;;;;;;;17.19;88.09;96705.09;127860;1096;30274;-95
2021/07/20 07:06:04;;;;;;;5.00;4.15;;;;;;;17.27;88.32;96711.53;129857;1094;36314;-94
2021/07/20 07:08:36;;;;;;;5.45;3.53;;;;;;;17.30;88.04;96706.31;129835;1095;27746;-95
2021/07/20 07:11:08;;;;;;;6.50;3.95;;;;;;;17.26;87.68;96708.06;127966;1097;33183;-94
2021/07/20 07:13:41;;;;;;;7.03;4.83;;;;;;;17.27;87.76;96715.00;127819;1095;31744;-96
2021/07/20 07:16:13;;;;;;;7.23;4.85;;;;;;;17.27;87.73;96706.17;127659;1096;35816;-95
2021/07/20 07:18:47;;;;;;;7.30;4.83;;;;;;;17.16;86.79;96713.75;127795;1096;30660;-94
2021/07/20 07:21:20;;;;;;;7.93;5.18;;;;;;;17.17;87.59;96720.68;127958;1096;35004;-95
2021/07/20 07:23:54;;;;;;;7.30;4.97;;;;;;;17.20;87.64;96712.81;127759;1095;38085;-94
2021/07/20 07:26:26;;;;;;;8.08;5.53;;;;;;;17.12;86.96;96716.28;127655;1096;72573;-95
2021/07/20 07:28:58;;;;;;;7.90;5.23;;;;;;;16.90;86.44;96716.47;127746;1097;33100;-95
2021/07/20 07:31:30;;;;;;;8.05;4.98;;;;;;;16.96;87.41;96717.88;127813;1095;32996;-95
2021/07/20 07:34:02;;;;;;;8.53;5.68;;;;;;;16.99;87.08;96717.23;127733;1096;29731;-95
2021/07/20 07:36:35;;;;;;;7.83;5.68;;;;;;;16.89;86.89;96728.27;127728;1097;34991;-95
2021/07/20 07:39:08;;;;;;;9.90;5.80;;;;;;;16.86;87.00;96718.97;127737;1096;64623;-95
2021/07/20 07:41:45;;;;;;;7.55;5.43;;;;;;;16.86;87.15;96720.86;127766;1096;35659;-95
2021/07/20 07:44:20;;;;;;;7.78;5.23;;;;;;;16.80;86.84;96722.14;127794;1096;33741;-96
2021/07/20 07:46:55;;;;;;;7.88;5.60;;;;;;;16.64;86.69;96721.80;127910;1096;35447;-95
2021/07/20 07:49:27;;;;;;;8.35;5.43;;;;;;;16.58;87.08;96721.14;127691;1096;74575;-95
2021/07/20 07:52:00;;;;;;;6.75;4.58;;;;;;;16.53;87.20;96721.30;127703;1096;34160;-95
2021/07/20 07:54:33;;;;;;;6.88;4.95;;;;;;;16.45;87.19;96727.42;127704;1096;69422;-95
2021/07/20 07:57:07;;;;;;;7.93;5.25;;;;;;;16.29;86.98;96724.41;127741;1096;35197;-95
2021/07/20 07:59:41;;;;;;;7.95;6.20;;;;;;;16.19;87.54;96726.60;128032;1095;37573;-95
2021/07/20 08:02:21;;;;;;;7.78;5.18;;;;;;;16.17;87.99;96723.42;127770;1095;37969;-95
2021/07/20 08:04:54;;;;;;;7.40;5.17;;;;;;;16.22;88.22;96731.33;127786;1096;42610;-94
2021/07/20 08:07:27;;;;;;;9.48;6.25;;;;;;;16.31;88.21;96730.22;127997;1096;40149;-96
2021/07/20 08:10:01;;;;;;;11.13;6.15;;;;;;;16.42;88.50;96736.08;127735;1095;42255;-96
2021/07/20 08:12:34;;;;;;;8.33;5.38;;;;;;;16.55;88.08;96740.51;127724;1096;30423;-95
2021/07/20 08:15:08;;;;;;;10.18;6.78;;;;;;;16.62;87.85;96738.17;127842;1096;31610;-95
2021/07/20 08:17:41;;;;;;;9.90;6.28;;;;;;;16.68;87.65;96743.39;127861;1096;33168;-95
2021/07/20 08:20:17;;;;;;;11.48;6.18;;;;;;;16.72;87.39;96744.33;127787;1095;40352;-95
2021/07/20 08:22:51;;;;;;;9.38;6.28;;;;;;;16.81;87.38;96745.13;127914;1096;39188;-95
2021/07/20 08:25:29;;;;;;;9.60;6.15;;;;;;;16.81;87.21;96747.81;127924;1096;35452;-94
2021/07/20 08:28:06;;;;;;;8.88;5.85;;;;;;;16.82;86.86;96760.09;127776;1095;33484;-96
2021/07/20 08:30:41;;;;;;;9.30;6.30;;;;;;;16.73;86.83;96751.25;127792;1094;31468;-94
2021/07/20 08:33:19;;;;;;;7.83;6.13;;;;;;;16.73;86.83;96751.25;127913;1096;35462;-94
2021/07/20 08:35:53;;;;;;;10.73;6.25;;;;;;;16.81;87.05;96750.48;127727;1096;29969;-95
2021/07/20 08:38:25;;;;;;;9.70;5.93;;;;;;;16.90;86.49;96745.94;127778;1096;33687;-95
2021/07/20 08:41:16;;;;;;;9.43;6.25;;;;;;;16.97;86.12;96750.80;127835;1096;38065;-95
2021/07/20 08:44:14;;;;;;;10.70;5.60;;;;;;;16.90;85.25;96745.94;127934;1096;29682;-94
2021/07/20 08:46:53;;;;;;;8.50;5.90;;;;;;;16.80;84.93;96755.05;127862;1096;38193;-95
2021/07/20 08:49:46;;;;;;;10.25;5.83;;;;;;;16.67;85.04;96753.31;127881;1095;34691;-95
2021/07/20 08:52:29;;;;;;;7.35;5.50;;;;;;;16.76;85.30;96756.01;127743;1096;41096;-95
2021/07/20 08:55:05;;;;;;;10.70;6.35;;;;;;;16.81;85.37;96761.20;127815;1096;33861;-95
2021/07/20 08:57:46;;;;;;;8.38;5.88;;;;;;;16.73;85.05;96756.61;127877;1096;28339;-95
2021/07/20 09:00:20;;;;;;;11.33;6.55;;;;;;;16.70;85.30;96759.92;127850;1096;33428;-95
2021/07/20 09:03:01;;;;;;;12.15;6.33;;;;;;;16.65;84.85;96760.84;127803;1096;32580;-95
2021/07/20 09:05:39;;;;;;;9.03;5.68;;;;;;;16.62;84.83;96761.47;127646;1096;68333;-95
2021/07/20 09:08:17;;;;;;;11.50;6.35;;;;;;;16.73;85.95;96765.43;127762;1096;29807;-95
2021/07/20 09:10:54;;;;;;;7.85;5.63;;;;;;;16.65;84.71;96768.08;127785;1095;32014;-95
2021/07/20 09:13:33;;;;;;;9.83;6.25;;;;;;;16.54;85.27;96764.91;127744;1096;31400;-95
2021/07/20 09:16:19;;;;;;;20.33;11.55;;;;;;;16.63;85.82;96763.83;127923;1096;33673;-95
2021/07/20 09:18:58;;;;;;;11.25;7.73;;;;;;;16.74;85.56;96766.22;127844;1096;67282;-95
2021/07/20 09:21:32;;;;;;;9.18;6.70;;;;;;;16.84;85.87;96763.24;127806;1096;35633;-95
2021/07/20 09:24:13;;;;;;;11.13;7.00;;;;;;;16.89;85.38;96761.22;127789;1096;34503;-95
2021/07/20 09:26:54;;;;;;;10.00;7.10;;;;;;;16.91;85.22;96763.57;127747;1097;71140;-95
2021/07/20 09:29:30;;;;;;;9.93;6.63;;;;;;;16.93;85.02;96765.94;127783;1096;31397;-94
2021/07/20 09:32:15;;;;;;;11.10;7.43;;;;;;;16.95;85.11;96764.52;127820;1095;35629;-95
2021/07/20 09:34:59;;;;;;;10.17;6.43;;;;;;;17.02;84.95;96764.81;127883;1096;34279;-95
2021/07/20 09:37:37;;;;;;;11.13;7.13;;;;;;;17.14;84.97;96764.18;127808;1096;39988;-96
2021/07/20 09:40:25;;;;;;;9.25;6.58;;;;;;;17.10;84.33;96766.71;127783;1096;34266;-95
2021/07/20 09:43:06;;;;;;;8.85;6.23;;;;;;;17.16;84.08;96762.76;127705;1095;31892;-95
2021/07/20 09:45:45;;;;;;;10.63;7.38;;;;;;;17.26;84.18;96764.33;127659;1095;31886;-94
2021/07/20 09:48:23;;;;;;;10.80;6.50;;;;;;;17.32;83.15;96747.00;127734;1096;35579;-94
2021/07/20 09:51:12;;;;;;;9.58;6.93;;;;;;;17.09;82.00;96754.42;127696;1096;30268;-95
2021/07/20 09:54:03;;;;;;;10.27;6.53;;;;;;;16.91;81.64;96750.19;127798;1097;29828;-95
2021/07/20 09:56:51;;;;;;;9.65;6.53;;;;;;;16.78;82.46;96762.62;127718;1095;34143;-94
2021/07/20 09:59:58;;;;;;;10.90;6.93;;;;;;;16.59;82.06;96752.16;127688;1095;47717;-94
2021/07/20 10:02:41;;;;;;;11.80;6.75;;;;;;;16.45;82.26;96756.06;127640;1097;74644;-95
2021/07/20 10:05:20;;;;;;;11.48;7.03;;;;;;;16.39;82.32;96751.97;127723;1095;34292;-95
2021/07/20 10:07:58;;;;;;;9.93;6.98;;;;;;;16.42;82.83;96756.70;127765;1096;37275;-96
2021/07/20 10:10:39;;;;;;;9.70;6.63;;;;;;;16.40;82.44;96753.55;127663;1096;37771;-94
2021/07/20 10:13:15;;;;;;;12.33;7.03;;;;;;;16.40;82.98;96754.34;127760;1097;31884;-95
2021/07/20 10:15:56;;;;;;;9.95;6.63;;;;;;;16.46;82.81;96755.75;127911;1095;33596;-95
2021/07/20 10:18:39;;;;;;;10.18;6.98;;;;;;;16.48;82.41;96755.47;127807;1096;31552;-94
2021/07/20 10:21:18;;;;;;;11.93;7.18;;;;;;;16.56;82.44;96752.78;127786;1096;34173;-94
2021/07/20 10:24:00;;;;;;;11.15;7.03;;;;;;;16.80;82.92;96755.05;127720;1095;31482;-94
2021/07/20 10:26:38;;;;;;;12.25;7.50;;;;;;;17.01;83.04;96743.70;127665;1096;32197;-95
2021/07/20 10:29:20;;;;;;;9.60;6.98;;;;;;;17.16;82.68;96748.58;127706;1096;70622;-95
2021/07/20 10:32:06;;;;;;;9.68;6.40;;;;;;;17.23;81.79;96745.44;127834;1095;30236;-94
2021/07/20 10:34:46;;;;;;;10.98;6.70;;;;;;;17.20;81.81;96744.97;127671;1097;35448;-95
2021/07/20 10:37:22;;;;;;;11.48;7.68;;;;;;;17.14;81.18;96746.22;127750;1096;34382;-94
2021/07/20 10:40:00;;;;;;;9.68;7.13;;;;;;;17.08;81.63;96744.81;127731;1096;36236;-94
2021/07/20 10:42:41;;;;;;;10.30;6.93;;;;;;;17.14;81.73;96751.58;127813;1096;30746;-95
2021/07/20 10:45:17;;;;;;;9.85;6.78;;;;;;;17.14;81.93;96743.53;127676;1095;31917;-94
2021/07/20 10:47:57;;;;;;;10.15;6.93;;;;;;;17.28;82.12;96739.90;127820;1097;30569;-95
2021/07/20 10:50:34;;;;;;;11.00;7.38;;;;;;;17.28;81.53;96750.61;127723;1095;33147;-95
2021/07/20 10:53:11;;;;;;;8.88;6.78;;;;;;;17.24;80.91;96745.11;127676;1096;34178;-95
2021/07/20 10:55:54;;;;;;;11.10;7.45;;;;;;;17.25;80.64;96745.90;127835;1097;31971;-95
2021/07/20 10:58:33;;;;;;;11.30;7.27;;;;;;;17.26;80.55;96742.90;127701;1096;33586;-95
2021/07/20 11:01:13;;;;;;;10.53;7.03;;;;;;;17.31;80.76;96742.72;127657;1096;31943;-94
2021/07/20 11:03:59;;;;;;;10.63;7.30;;;;;;;17.33;80.31;96737.07;127638;1096;35711;-95
2021/07/20 11:06:32;;;;;;;12.98;6.68;;;;;;;17.29;80.18;96741.47;127789;1097;34468;-95
2021/07/20 11:09:12;;;;;;;9.20;7.10;;;;;;;17.31;80.44;96740.05;127768;1096;33682;-95
2021/07/20 11:11:49;;;;;;;11.97;7.07;;;;;;;17.34;79.63;96736.75;127658;1097;31028;-95
2021/07/20 11:14:27;;;;;;;10.88;7.08;;;;;;;17.30;79.07;96737.69;127731;1097;34649;-95
2021/07/20 11:17:01;;;;;;;10.20;6.98;;;;;;;17.32;79.32;96735.50;127704;1096;35274;-95
2021/07/20 11:19:34;;;;;;;9.93;6.80;;;;;;;17.37;78.91;96738.00;127687;1097;31567;-95
2021/07/20 11:22:07;;;;;;;9.63;6.50;;;;;;;17.41;79.31;96733.57;127751;1096;28803;-94
2021/07/20 11:24:40;;;;;;;8.55;5.78;;;;;;;17.44;78.97;96733.72;127692;1096;31037;-94
2021/07/20 11:27:13;;;;;;;10.08;6.53;;;;;;;17.47;78.51;96718.91;127716;1096;27917;-94
2021/07/20 11:29:45;;;;;;;10.30;6.05;;;;;;;17.46;78.14;96730.73;127808;1096;31258;-95
2021/07/20 11:32:23;;;;;;;10.08;6.90;;;;;;;17.46;78.51;96730.73;127775;1096;36560;-95
2021/07/20 11:35:03;;;;;;;9.53;6.68;;;;;;;17.48;78.47;96728.52;127750;1096;29287;-94
2021/07/20 11:37:42;;;;;;;10.43;6.98;;;;;;;17.51;78.06;96727.88;127698;1097;28097;-95
2021/07/20 11:40:18;;;;;;;10.43;6.65;;;;;;;17.54;78.33;96723.77;127801;1096;34109;-95
2021/07/20 11:42:56;;;;;;;8.85;6.45;;;;;;;17.53;78.01;96724.88;127869;1096;73578;-95
2021/07/20 11:45:34;;;;;;;10.15;6.68;;;;;;;17.52;78.21;96729.45;127737;1096;31228;-95
2021/07/20 11:48:09;;;;;;;10.35;6.65;;;;;;;17.56;78.21;96725.02;127881;1096;32759;-95
2021/07/20 11:50:51;;;;;;;9.88;6.50;;;;;;;17.59;77.93;96723.58;127779;1096;35923;-95
2021/07/20 11:53:30;;;;;;;9.73;6.90;;;;;;;17.57;78.51;96721.23;127791;1096;33563;-94
2021/07/20 11:56:10;;;;;;;10.33;7.15;;;;;;;17.63;79.02;96719.96;127865;1095;37639;-96
2021/07/20 11:59:37;;;;;;;11.60;7.40;;;;;;;17.67;79.30;96726.25;127861;1095;32573;-95
2021/07/20 12:02:54;;;;;;;11.30;7.23;;;;;;;17.80;78.46;96724.50;127855;1096;26628;-95
2021/07/20 12:05:57;;;;;;;10.08;7.05;;;;;;;17.78;78.11;96716.78;127701;1096;32530;-95